Time;durP1;ratioP1;P1;durP2;ratioP2;P2;SDS_P1;SDS_P2;PMS_P1;PMS_P2;Temp;Humidity;BMP_temperature;BMP_pressure;BME280_temperature;BME280_humidity;BME280_pressure;Samples;Min_cycle;Max_cycle;Signal;HPM_P1;HPM_P2
2024/01/09 00:00:00;;;;;;;10.07;9.77;;;20.80;37.20;;;;;;5025853;28;20469;-68
2024/01/09 00:02:28;;;;;;;9.60;9.30;;;20.80;37.30;;;;;;5026949;28;20461;-68
2024/01/09 00:04:55;;;;;;;10.03;9.63;;;20.80;37.30;;;;;;5025087;28;20789;-68
2024/01/09 00:07:22;;;;;;;10.33;9.93;;;20.80;37.20;;;;;;5023525;28;20502;-68
2024/01/09 00:09:49;;;;;;;10.43;9.93;;;20.80;37.30;;;;;;5023936;28;20478;-68
2024/01/09 00:12:16;;;;;;;9.93;9.57;;;20.80;37.30;;;;;;5026615;28;20485;-67
2024/01/09 00:14:43;;;;;;;10.10;9.80;;;20.70;37.30;;;;;;5026498;28;20984;-68
2024/01/09 00:17:10;;;;;;;9.70;9.40;;;20.70;37.30;;;;;;5015192;28;20465;-68
2024/01/09 00:19:38;;;;;;;9.90;9.50;;;20.70;37.30;;;;;;5023130;28;20954;-68
2024/01/09 00:22:05;;;;;;;9.80;9.50;;;20.70;37.80;;;;;;5023007;28;20493;-68
2024/01/09 00:24:32;;;;;;;9.17;8.87;;;20.70;37.30;;;;;;5025129;28;21160;-68
2024/01/09 00:26:59;;;;;;;9.90;9.50;;;20.70;37.30;;;;;;5024459;28;20512;-68
2024/01/09 00:29:25;;;;;;;9.13;8.83;;;20.60;37.20;;;;;;5023044;28;20489;-68
2024/01/09 00:31:53;;;;;;;9.67;9.33;;;20.60;37.20;;;;;;5023640;28;20901;-68
2024/01/09 00:34:20;;;;;;;9.93;9.50;;;20.70;37.30;;;;;;5026329;28;20479;-68
2024/01/09 00:36:48;;;;;;;10.27;9.97;;;20.60;37.30;;;;;;5026288;28;20475;-68
2024/01/09 00:39:15;;;;;;;9.93;9.53;;;20.60;37.30;;;;;;5023367;28;20944;-68
2024/01/09 00:41:42;;;;;;;9.50;9.20;;;20.60;37.30;;;;;;5023134;28;21016;-68
2024/01/09 00:44:09;;;;;;;9.90;9.50;;;20.60;37.30;;;;;;5026082;28;20469;-68
2024/01/09 00:46:35;;;;;;;9.27;8.97;;;20.60;37.30;;;;;;5026788;28;20484;-68
2024/01/09 00:49:02;;;;;;;8.90;8.60;;;20.60;37.30;;;;;;5024134;28;20517;-69
2024/01/09 00:51:29;;;;;;;9.00;8.70;;;20.60;37.30;;;;;;5022733;28;20551;-68
2024/01/09 00:53:57;;;;;;;10.07;9.57;;;20.60;37.30;;;;;;5023864;28;20482;-68
2024/01/09 00:56:24;;;;;;;9.60;9.30;;;20.60;37.30;;;;;;5026398;28;20477;-68
2024/01/09 00:58:51;;;;;;;10.23;9.77;;;20.60;37.30;;;;;;5025198;28;20476;-68
2024/01/09 01:01:18;;;;;;;9.43;9.13;;;20.50;37.30;;;;;;5020266;28;20493;-68
2024/01/09 01:03:45;;;;;;;9.63;9.33;;;20.50;37.30;;;;;;5025846;28;20481;-68
2024/01/09 01:06:12;;;;;;;9.17;8.87;;;20.60;37.40;;;;;;5013801;28;20474;-68
2024/01/09 01:08:39;;;;;;;10.47;9.57;;;20.60;37.50;;;;;;5022125;28;20516;-68
2024/01/09 01:11:08;;;;;;;9.20;8.90;;;20.50;37.30;;;;;;5024048;28;20989;-68
2024/01/09 01:13:35;;;;;;;8.43;8.03;;;20.50;37.30;;;;;;5025390;28;20536;-69
2024/01/09 01:16:02;;;;;;;8.50;8.30;;;20.50;37.20;;;;;;5023406;28;20476;-68
2024/01/09 01:18:29;;;;;;;9.90;9.40;;;20.50;37.30;;;;;;5022072;28;20995;-68
2024/01/09 01:20:55;;;;;;;9.70;9.30;;;20.50;37.30;;;;;;5021636;28;20868;-68
2024/01/09 01:23:22;;;;;;;8.80;8.50;;;20.50;37.30;;;;;;5022244;28;20474;-69
2024/01/09 01:25:49;;;;;;;9.23;8.90;;;20.50;37.40;;;;;;5022030;28;20470;-67
2024/01/09 01:28:17;;;;;;;8.90;8.70;;;20.40;37.30;;;;;;5025151;28;21007;-68
2024/01/09 01:30:44;;;;;;;9.60;9.13;;;20.50;37.40;;;;;;5025213;28;20495;-68
2024/01/09 01:33:11;;;;;;;9.03;8.67;;;20.40;37.30;;;;;;5021795;28;20467;-67
2024/01/09 01:35:38;;;;;;;9.20;8.90;;;20.40;37.40;;;;;;5021767;28;20850;-68
2024/01/09 01:38:05;;;;;;;9.30;9.00;;;20.50;37.40;;;;;;5023912;28;20489;-69
2024/01/09 01:40:32;;;;;;;10.03;9.63;;;20.40;37.40;;;;;;5025020;28;20465;-68
2024/01/09 01:42:59;;;;;;;9.53;9.23;;;20.50;37.40;;;;;;5023139;28;20437;-68
2024/01/09 01:45:28;;;;;;;9.70;9.30;;;20.40;37.40;;;;;;5021486;28;20587;-68
2024/01/09 01:47:55;;;;;;;10.50;10.10;;;20.50;37.40;;;;;;5022118;28;20486;-68
2024/01/09 01:50:22;;;;;;;10.00;9.60;;;20.40;37.40;;;;;;5024764;28;20469;-67
2024/01/09 01:52:48;;;;;;;9.73;9.30;;;20.40;37.40;;;;;;5024510;28;20480;-67
2024/01/09 01:55:17;;;;;;;9.70;9.30;;;20.40;37.50;;;;;;5021374;28;20442;-68
2024/01/09 01:57:45;;;;;;;9.80;9.40;;;20.40;37.40;;;;;;5021387;28;20932;-67
2024/01/09 02:00:13;;;;;;;9.70;9.30;;;20.40;37.40;;;;;;5024188;28;20468;-68
2024/01/09 02:02:43;;;;;;;10.30;9.90;;;20.40;37.40;;;;;;5024366;28;20445;-67
2024/01/09 02:05:10;;;;;;;10.20;9.87;;;20.40;37.40;;;;;;5021597;28;20794;-69
2024/01/09 02:07:40;;;;;;;9.20;8.80;;;20.40;37.40;;;;;;5021010;28;20481;-68
2024/01/09 02:10:07;;;;;;;9.27;9.00;;;20.40;37.50;;;;;;5023158;28;20856;-69
2024/01/09 02:12:34;;;;;;;11.10;10.60;;;20.40;37.50;;;;;;5024257;28;20496;-67
2024/01/09 02:15:01;;;;;;;9.97;9.57;;;20.40;37.60;;;;;;5022536;28;20488;-69
2024/01/09 02:17:28;;;;;;;9.90;9.60;;;20.40;37.50;;;;;;5019949;28;20811;-67
2024/01/09 02:19:57;;;;;;;10.23;9.87;;;20.30;37.40;;;;;;5021690;28;20474;-68
2024/01/09 02:22:24;;;;;;;10.10;9.80;;;20.40;37.50;;;;;;5024195;28;20504;-68
2024/01/09 02:24:50;;;;;;;9.80;9.50;;;20.40;37.50;;;;;;5020681;28;20473;-68
2024/01/09 02:27:25;;;;;;;10.30;9.90;;;20.30;37.40;;;;;;5020499;28;20536;-68
2024/01/09 02:29:54;;;;;;;10.30;9.90;;;20.40;37.50;;;;;;5021146;28;20862;-68
2024/01/09 02:32:21;;;;;;;9.20;8.90;;;20.30;37.40;;;;;;5023870;28;20489;-68
2024/01/09 02:34:49;;;;;;;9.37;9.07;;;20.30;37.40;;;;;;5023991;28;20933;-68
2024/01/09 02:37:16;;;;;;;9.50;9.20;;;20.30;37.40;;;;;;5012430;28;20512;-68
2024/01/09 02:39:43;;;;;;;9.57;9.27;;;20.30;37.40;;;;;;5020398;28;20473;-68
2024/01/09 02:42:10;;;;;;;9.73;9.40;;;20.30;37.50;;;;;;5022934;28;20496;-68
2024/01/09 02:44:37;;;;;;;10.10;9.80;;;20.30;37.50;;;;;;5023869;28;20945;-68
2024/01/09 02:47:05;;;;;;;9.93;9.63;;;20.30;37.40;;;;;;5021818;28;20488;-69
2024/01/09 02:49:32;;;;;;;9.50;9.10;;;20.30;37.50;;;;;;5020265;28;20516;-68
2024/01/09 02:52:00;;;;;;;9.70;9.40;;;20.30;37.50;;;;;;5021091;28;20517;-68
2024/01/09 02:54:27;;;;;;;10.60;10.20;;;20.30;37.50;;;;;;5023716;28;20473;-67
2024/01/09 02:56:54;;;;;;;10.20;9.90;;;20.30;37.50;;;;;;5023309;28;20541;-68
2024/01/09 02:59:23;;;;;;;10.40;9.90;;;20.30;37.50;;;;;;5020146;28;20458;-68
2024/01/09 03:01:50;;;;;;;10.07;9.67;;;20.30;37.40;;;;;;5020046;28;20822;-68
2024/01/09 03:04:19;;;;;;;10.10;9.70;;;20.30;37.40;;;;;;5012112;28;20474;-68
2024/01/09 03:06:45;;;;;;;9.90;9.50;;;20.30;37.30;;;;;;5020240;28;20524;-68
2024/01/09 03:09:12;;;;;;;9.43;9.13;;;20.30;37.40;;;;;;5021221;28;20528;-68
2024/01/09 03:11:39;;;;;;;10.30;9.80;;;20.30;37.40;;;;;;5019928;28;20948;-67
2024/01/09 03:14:06;;;;;;;9.63;9.33;;;20.30;37.50;;;;;;5022041;28;20496;-68
2024/01/09 03:16:33;;;;;;;9.87;9.57;;;20.30;37.50;;;;;;5018075;28;20481;-68
2024/01/09 03:19:00;;;;;;;9.87;9.57;;;20.30;37.60;;;;;;5021032;28;20473;-68
2024/01/09 03:21:28;;;;;;;9.60;9.30;;;20.30;38.00;;;;;;5023125;28;20654;-68
2024/01/09 03:23:55;;;;;;;9.70;9.40;;;20.30;37.50;;;;;;5022871;28;20477;-68
2024/01/09 03:26:22;;;;;;;9.80;9.50;;;20.30;37.50;;;;;;5020121;28;20552;-68
2024/01/09 03:28:49;;;;;;;9.90;9.50;;;20.30;37.50;;;;;;5025459;28;20516;-68
2024/01/09 03:31:22;;;;;;;10.73;10.27;;;20.30;37.40;;;;;;5026301;28;20489;-68
2024/01/09 03:33:49;;;;;;;10.33;10.00;;;20.30;37.40;;;;;;5026499;28;20476;-68
2024/01/09 03:36:17;;;;;;;10.33;10.03;;;20.30;37.50;;;;;;5029211;28;20465;-69
2024/01/09 03:38:45;;;;;;;10.50;10.20;;;20.30;37.60;;;;;;5029785;28;20479;-68
2024/01/09 03:41:13;;;;;;;10.87;10.37;;;20.30;37.50;;;;;;5026736;28;20488;-69
2024/01/09 03:43:40;;;;;;;9.80;9.40;;;20.20;37.50;;;;;;5026439;28;20888;-69
2024/01/09 03:46:06;;;;;;;9.70;9.40;;;20.20;37.40;;;;;;5027875;28;20478;-68
2024/01/09 03:48:33;;;;;;;9.57;9.27;;;20.30;37.50;;;;;;5029643;28;20589;-68
2024/01/09 03:51:00;;;;;;;9.90;9.53;;;20.20;37.40;;;;;;5028265;28;20500;-68
2024/01/09 03:53:27;;;;;;;10.27;9.87;;;20.30;37.60;;;;;;5026376;28;20485;-68
2024/01/09 03:55:55;;;;;;;9.73;9.43;;;20.30;37.60;;;;;;5025837;28;20486;-67
2024/01/09 03:58:22;;;;;;;10.13;9.83;;;20.30;37.50;;;;;;5029550;28;20465;-68
2024/01/09 04:00:49;;;;;;;9.43;9.13;;;20.20;37.50;;;;;;5026879;28;20461;-68
2024/01/09 04:03:16;;;;;;;10.90;10.60;;;20.30;37.50;;;;;;5029352;28;20448;-68
2024/01/09 04:05:43;;;;;;;9.97;9.57;;;20.30;37.40;;;;;;5027706;28;20472;-68
2024/01/09 04:08:10;;;;;;;9.47;9.17;;;20.20;37.50;;;;;;5028108;28;20516;-68
2024/01/09 04:10:37;;;;;;;9.10;8.80;;;20.20;37.40;;;;;;5029304;28;20465;-68
2024/01/09 04:13:05;;;;;;;10.23;9.87;;;20.20;37.40;;;;;;5027985;28;20480;-68
2024/01/09 04:15:34;;;;;;;10.03;9.73;;;20.20;37.40;;;;;;5025955;28;20478;-68
2024/01/09 04:18:01;;;;;;;10.40;10.00;;;20.20;37.50;;;;;;5026466;28;20529;-68
2024/01/09 04:20:28;;;;;;;9.50;9.20;;;20.20;37.40;;;;;;5029223;28;20932;-68
2024/01/09 04:22:55;;;;;;;9.67;9.40;;;20.20;37.30;;;;;;5029432;28;20472;-68
2024/01/09 04:25:22;;;;;;;9.40;9.10;;;20.20;37.40;;;;;;5025972;28;20481;-68
2024/01/09 04:27:49;;;;;;;9.30;9.00;;;20.20;37.40;;;;;;5025644;28;20469;-68
2024/01/09 04:30:17;;;;;;;9.07;8.87;;;20.20;37.30;;;;;;5028493;28;20586;-69
2024/01/09 04:32:44;;;;;;;9.77;9.37;;;20.20;37.30;;;;;;5029406;28;20473;-69
2024/01/09 04:35:11;;;;;;;9.83;9.53;;;20.20;37.40;;;;;;5026897;28;20480;-67
2024/01/09 04:37:38;;;;;;;10.33;10.03;;;20.20;37.30;;;;;;5025644;28;20470;-67
2024/01/09 04:40:06;;;;;;;10.20;9.90;;;20.20;37.30;;;;;;5025605;28;20528;-68
2024/01/09 04:42:33;;;;;;;10.07;9.77;;;20.20;37.30;;;;;;5026217;28;20544;-68
2024/01/09 04:45:00;;;;;;;10.00;9.70;;;20.20;37.30;;;;;;5025390;28;20481;-68
2024/01/09 04:47:29;;;;;;;9.80;9.50;;;20.20;37.40;;;;;;5022476;28;20485;-68
2024/01/09 04:49:55;;;;;;;10.30;9.90;;;20.20;37.40;;;;;;5022468;28;20579;-68
2024/01/09 04:52:23;;;;;;;9.27;8.97;;;20.20;37.40;;;;;;5014528;28;20497;-69
2024/01/09 04:54:50;;;;;;;9.87;9.57;;;20.20;37.40;;;;;;5022474;28;20445;-68
2024/01/09 04:57:17;;;;;;;10.13;9.83;;;20.20;37.40;;;;;;5028307;28;20870;-69
2024/01/09 04:59:44;;;;;;;11.30;10.90;;;20.20;37.40;;;;;;5022471;28;20470;-68
2024/01/09 05:02:11;;;;;;;11.67;11.17;;;20.20;37.40;;;;;;5024291;28;20489;-68
2024/01/09 05:04:39;;;;;;;11.20;10.83;;;20.20;37.40;;;;;;5020684;28;20839;-67
2024/01/09 05:07:06;;;;;;;10.50;10.17;;;20.20;37.30;;;;;;5022981;28;20448;-68
2024/01/09 05:09:33;;;;;;;9.70;9.40;;;20.20;37.30;;;;;;5022179;28;20505;-69
2024/01/09 05:12:00;;;;;;;9.37;9.17;;;20.20;37.20;;;;;;5022605;28;20540;-69
2024/01/09 05:14:27;;;;;;;11.83;11.43;;;20.20;37.40;;;;;;5022047;28;20493;-68
2024/01/09 05:16:54;;;;;;;10.40;10.00;;;20.20;37.90;;;;;;5022123;28;20598;-68
2024/01/09 05:19:21;;;;;;;10.20;9.90;;;20.20;37.30;;;;;;5025181;28;20441;-69
2024/01/09 05:21:49;;;;;;;9.90;9.60;;;20.20;37.30;;;;;;5025276;28;20496;-68
2024/01/09 05:24:16;;;;;;;10.40;10.00;;;20.20;37.30;;;;;;5022479;28;20472;-68
2024/01/09 05:26:43;;;;;;;10.27;9.97;;;20.20;37.40;;;;;;5021800;28;20474;-69
2024/01/09 05:29:10;;;;;;;11.40;10.83;;;20.20;37.40;;;;;;5023119;28;20509;-69
2024/01/09 05:31:42;;;;;;;13.27;12.47;;;20.20;37.70;;;;;;5021663;28;20501;-68
2024/01/09 05:34:09;;;;;;;10.10;9.63;;;20.30;38.20;;;;;;5023182;28;20448;-67
2024/01/09 05:36:36;;;;;;;12.67;11.77;;;20.30;38.60;;;;;;5021613;28;20968;-68
2024/01/09 05:39:05;;;;;;;12.27;11.13;;;20.20;39.00;;;;;;5022483;28;20907;-68
2024/01/09 05:41:31;;;;;;;12.80;11.60;;;20.30;39.60;;;;;;5024962;28;20543;-69
2024/01/09 05:43:58;;;;;;;13.63;12.83;;;20.30;40.20;;;;;;5026713;28;20484;-70
2024/01/09 05:46:25;;;;;;;14.30;13.10;;;20.30;41.60;;;;;;5026340;28;20528;-70
2024/01/09 05:48:52;;;;;;;13.03;12.10;;;20.30;44.60;;;;;;5028624;28;20473;-67
2024/01/09 05:51:19;;;;;;;17.47;14.27;;;20.20;45.20;;;;;;5051871;22;20480;-63
2024/01/09 05:53:47;;;;;;;14.77;13.60;;;20.30;44.20;;;;;;5043691;28;20996;-63
2024/01/09 05:56:15;;;;;;;18.93;15.40;;;20.30;43.70;;;;;;5042194;28;20958;-62
2024/01/09 05:58:42;;;;;;;14.00;12.83;;;20.30;43.50;;;;;;5041056;28;20473;-64
2024/01/09 06:01:09;;;;;;;13.53;12.80;;;20.40;43.50;;;;;;5040655;28;20462;-65
2024/01/09 06:03:36;;;;;;;13.37;12.20;;;20.30;43.20;;;;;;5032717;28;20477;-64
2024/01/09 06:06:03;;;;;;;13.83;12.63;;;20.40;43.20;;;;;;5032607;28;20445;-64
2024/01/09 06:08:29;;;;;;;13.27;12.40;;;20.40;42.90;;;;;;5032507;28;20475;-64
2024/01/09 06:10:56;;;;;;;13.20;12.40;;;20.40;42.80;;;;;;5032481;28;20981;-64
2024/01/09 06:13:24;;;;;;;12.50;11.90;;;20.40;42.60;;;;;;5032346;28;20491;-63
2024/01/09 06:15:51;;;;;;;12.20;11.23;;;20.40;42.50;;;;;;5032488;28;20477;-64
2024/01/09 06:18:18;;;;;;;12.10;11.50;;;20.40;42.40;;;;;;5032185;28;20472;-64
2024/01/09 06:20:45;;;;;;;14.03;13.03;;;20.40;42.30;;;;;;5032442;28;20956;-64
2024/01/09 06:23:12;;;;;;;12.27;11.43;;;20.40;42.20;;;;;;5032249;28;20884;-64
2024/01/09 06:25:39;;;;;;;12.80;11.80;;;20.40;42.10;;;;;;5032658;28;20472;-64
2024/01/09 06:28:06;;;;;;;13.33;12.20;;;20.40;42.00;;;;;;5032688;28;20487;-64
2024/01/09 06:30:35;;;;;;;12.80;12.10;;;20.40;41.90;;;;;;5032372;28;20864;-64
2024/01/09 06:33:02;;;;;;;11.50;10.70;;;20.40;41.80;;;;;;5032068;28;20477;-65
2024/01/09 06:35:29;;;;;;;12.00;11.40;;;20.40;41.70;;;;;;5032352;28;20499;-65
2024/01/09 06:37:56;;;;;;;12.10;11.23;;;20.40;41.60;;;;;;5032349;28;20473;-64
2024/01/09 06:40:24;;;;;;;13.07;12.27;;;20.40;41.50;;;;;;5032231;28;20441;-64
2024/01/09 06:42:50;;;;;;;13.17;12.20;;;20.40;41.40;;;;;;5031870;28;20464;-64
2024/01/09 06:45:17;;;;;;;13.87;12.53;;;20.50;41.50;;;;;;5033849;28;20475;-64
2024/01/09 06:47:46;;;;;;;12.67;12.07;;;20.50;41.40;;;;;;5034501;28;20477;-64
2024/01/09 06:50:13;;;;;;;13.80;12.70;;;20.40;41.30;;;;;;5034068;28;20505;-64
2024/01/09 06:52:40;;;;;;;11.13;10.53;;;20.40;41.20;;;;;;5033920;28;20867;-64
2024/01/09 06:55:07;;;;;;;11.20;10.60;;;20.40;41.10;;;;;;5034208;28;21038;-64
2024/01/09 06:57:34;;;;;;;11.20;10.80;;;20.50;41.20;;;;;;5034237;28;20476;-64
2024/01/09 07:00:01;;;;;;;10.33;9.93;;;20.40;41.00;;;;;;5031812;28;20479;-63
2024/01/09 07:02:28;;;;;;;10.57;10.17;;;20.40;41.00;;;;;;5031653;28;20496;-65
2024/01/09 07:04:56;;;;;;;11.40;10.73;;;20.50;41.00;;;;;;5031587;28;20475;-65
2024/01/09 07:07:23;;;;;;;11.50;11.10;;;20.50;41.00;;;;;;5031657;28;20719;-65
2024/01/09 07:09:50;;;;;;;11.97;11.27;;;20.40;40.90;;;;;;5031712;28;20507;-64
2024/01/09 07:12:17;;;;;;;10.70;10.10;;;20.40;40.80;;;;;;5031732;28;20488;-64
2024/01/09 07:14:44;;;;;;;13.27;12.17;;;20.40;40.80;;;;;;5032820;28;20445;-64
2024/01/09 07:17:11;;;;;;;11.50;11.00;;;20.50;40.80;;;;;;5034769;28;20472;-64
2024/01/09 07:19:38;;;;;;;12.37;11.87;;;20.50;40.80;;;;;;5032453;28;20465;-64
2024/01/09 07:22:06;;;;;;;12.53;12.07;;;20.50;40.70;;;;;;5031202;28;20520;-64
2024/01/09 07:24:33;;;;;;;12.00;11.53;;;20.40;40.60;;;;;;5031471;28;20480;-64
2024/01/09 07:27:00;;;;;;;11.53;10.77;;;20.50;40.70;;;;;;5031356;28;20473;-64
2024/01/09 07:29:27;;;;;;;11.37;10.67;;;20.50;40.70;;;;;;5016736;28;20512;-64
2024/01/09 07:31:54;;;;;;;10.63;10.23;;;20.40;40.50;;;;;;5033294;28;20489;-64
2024/01/09 07:34:21;;;;;;;11.70;11.10;;;20.50;40.60;;;;;;5033975;28;20483;-64
2024/01/09 07:36:48;;;;;;;11.87;11.17;;;20.40;40.50;;;;;;5033549;28;20473;-64
2024/01/09 07:39:16;;;;;;;10.83;10.50;;;20.40;40.50;;;;;;5031817;28;20441;-64
2024/01/09 07:41:43;;;;;;;11.57;11.03;;;20.50;40.50;;;;;;5031209;28;20507;-64
2024/01/09 07:44:10;;;;;;;11.50;10.90;;;20.50;40.50;;;;;;5031197;28;20449;-64
2024/01/09 07:46:36;;;;;;;10.83;10.43;;;20.50;40.50;;;;;;5031392;28;20479;-64
2024/01/09 07:49:03;;;;;;;10.93;10.53;;;20.40;40.40;;;;;;5031053;28;20453;-65
2024/01/09 07:51:30;;;;;;;11.43;11.00;;;20.40;40.40;;;;;;5030933;28;21014;-64
2024/01/09 07:53:57;;;;;;;11.03;10.53;;;20.50;40.40;;;;;;5031201;28;20441;-64
2024/01/09 07:56:25;;;;;;;11.90;11.20;;;20.50;40.40;;;;;;5031088;28;20922;-63
2024/01/09 07:58:52;;;;;;;11.13;10.63;;;20.50;40.40;;;;;;5031097;28;20484;-65
2024/01/09 08:01:19;;;;;;;11.73;11.23;;;20.50;40.40;;;;;;5033772;28;20484;-64
2024/01/09 08:03:46;;;;;;;12.70;12.20;;;20.50;40.40;;;;;;5035709;28;20983;-64
2024/01/09 08:06:15;;;;;;;12.10;11.70;;;20.50;40.40;;;;;;5032316;28;20860;-64
2024/01/09 08:08:42;;;;;;;12.53;12.03;;;20.50;40.40;;;;;;5030981;28;20454;-64
2024/01/09 08:11:09;;;;;;;12.43;11.93;;;20.50;40.30;;;;;;5030764;28;20932;-64
2024/01/09 08:13:38;;;;;;;12.67;11.97;;;20.50;40.40;;;;;;5030980;28;20851;-64
2024/01/09 08:16:08;;;;;;;11.60;11.10;;;20.50;40.30;;;;;;5032313;28;20476;-64
2024/01/09 08:18:35;;;;;;;12.47;12.07;;;20.50;40.30;;;;;;5034743;28;20522;-65
2024/01/09 08:21:01;;;;;;;11.63;11.17;;;20.50;40.30;;;;;;5034974;28;20476;-64
2024/01/09 08:23:28;;;;;;;11.70;11.30;;;20.50;40.30;;;;;;5036563;28;20483;-64
2024/01/09 08:25:55;;;;;;;12.53;12.00;;;20.50;40.20;;;;;;5036558;28;20484;-64
2024/01/09 08:28:23;;;;;;;12.43;11.93;;;20.50;40.20;;;;;;5036399;28;20481;-64
2024/01/09 08:30:51;;;;;;;11.77;11.37;;;20.50;40.20;;;;;;5036152;28;21029;-64
2024/01/09 08:33:18;;;;;;;11.33;10.93;;;20.50;40.20;;;;;;5034303;28;20473;-64
2024/01/09 08:35:49;;;;;;;11.40;11.00;;;20.50;40.20;;;;;;5034338;28;20507;-64
2024/01/09 08:38:17;;;;;;;12.00;11.60;;;20.50;40.10;;;;;;5034389;28;20528;-64
2024/01/09 08:40:44;;;;;;;11.97;11.50;;;20.50;40.10;;;;;;5034486;28;20511;-64
2024/01/09 08:43:11;;;;;;;13.17;12.67;;;20.50;40.10;;;;;;5034250;28;20865;-65
2024/01/09 08:45:38;;;;;;;12.23;11.83;;;20.50;40.10;;;;;;5034464;28;20441;-64
2024/01/09 08:48:07;;;;;;;13.57;12.90;;;20.50;40.10;;;;;;5034526;28;20448;-65
2024/01/09 08:50:34;;;;;;;12.03;11.60;;;20.50;40.10;;;;;;5018669;28;20500;-64
2024/01/09 08:53:01;;;;;;;12.77;12.00;;;20.50;40.00;;;;;;5034459;28;20808;-65
2024/01/09 08:55:28;;;;;;;12.37;11.87;;;20.50;40.00;;;;;;5034140;28;20473;-64
2024/01/09 08:57:55;;;;;;;11.27;10.87;;;20.50;39.90;;;;;;5034166;28;20475;-64
2024/01/09 09:00:22;;;;;;;12.57;12.10;;;20.50;39.90;;;;;;5033884;28;20461;-65
2024/01/09 09:02:50;;;;;;;12.13;11.53;;;20.50;39.90;;;;;;5033838;28;20461;-65
2024/01/09 09:05:19;;;;;;;11.50;11.10;;;20.50;39.90;;;;;;5033859;28;20817;-65
2024/01/09 09:07:46;;;;;;;11.93;11.53;;;20.50;39.90;;;;;;5033784;28;20437;-65
2024/01/09 09:10:13;;;;;;;12.00;11.60;;;20.50;39.80;;;;;;5033689;28;20519;-65
2024/01/09 09:12:39;;;;;;;11.97;11.40;;;20.50;39.80;;;;;;5033833;28;20461;-65
2024/01/09 09:15:07;;;;;;;12.63;11.93;;;20.50;39.80;;;;;;5033648;28;20956;-64
2024/01/09 09:17:34;;;;;;;12.50;12.00;;;20.50;39.80;;;;;;5033743;28;20449;-64
2024/01/09 09:20:02;;;;;;;11.77;11.33;;;20.50;39.80;;;;;;5033768;28;20472;-65
2024/01/09 09:22:30;;;;;;;11.53;11.23;;;20.50;39.80;;;;;;5033544;28;20983;-65
2024/01/09 09:24:57;;;;;;;11.80;11.40;;;20.50;39.80;;;;;;5033742;28;20444;-65
2024/01/09 09:27:24;;;;;;;10.87;10.57;;;20.50;39.80;;;;;;5033230;28;20941;-64
2024/01/09 09:29:52;;;;;;;12.37;11.87;;;20.50;39.80;;;;;;5033495;28;21050;-65
2024/01/09 09:32:19;;;;;;;12.20;11.83;;;20.50;39.80;;;;;;5033290;28;21014;-64
2024/01/09 09:34:46;;;;;;;12.23;11.83;;;20.60;39.80;;;;;;5033554;28;20881;-65
2024/01/09 09:37:13;;;;;;;12.00;11.60;;;20.50;39.70;;;;;;5033436;28;20473;-64
2024/01/09 09:39:41;;;;;;;11.50;11.10;;;20.50;39.80;;;;;;5033242;28;20441;-65
2024/01/09 09:42:10;;;;;;;12.43;12.00;;;20.50;39.70;;;;;;5032990;28;20915;-64
2024/01/09 09:44:38;;;;;;;11.30;11.00;;;20.60;39.80;;;;;;5033174;28;20453;-64
2024/01/09 09:47:07;;;;;;;11.80;11.40;;;20.50;39.80;;;;;;5033336;28;20437;-65
2024/01/09 09:49:38;;;;;;;11.90;11.60;;;20.50;39.80;;;;;;5017390;28;20438;-66
2024/01/09 09:52:05;;;;;;;11.87;11.40;;;20.50;39.80;;;;;;5033001;28;20461;-64
2024/01/09 09:54:33;;;;;;;13.23;12.63;;;20.50;39.80;;;;;;5033065;28;20441;-64
2024/01/09 09:57:01;;;;;;;11.17;10.77;;;20.50;39.80;;;;;;5033089;28;20441;-65
2024/01/09 09:59:28;;;;;;;10.67;10.37;;;20.60;39.80;;;;;;5032849;28;20794;-65
2024/01/09 10:01:56;;;;;;;11.50;11.00;;;20.50;39.70;;;;;;5032690;28;20489;-65
2024/01/09 10:04:30;;;;;;;11.87;11.47;;;20.60;39.80;;;;;;5032956;28;20465;-65
2024/01/09 10:06:58;;;;;;;11.20;10.80;;;20.60;39.80;;;;;;5032696;28;20537;-64
2024/01/09 10:09:33;;;;;;;11.90;11.37;;;20.50;39.70;;;;;;5032771;28;20476;-65
2024/01/09 10:12:01;;;;;;;11.10;10.80;;;20.60;39.80;;;;;;5032521;28;20488;-65
2024/01/09 10:14:28;;;;;;;11.90;11.50;;;20.60;39.80;;;;;;5032696;28;20477;-65
2024/01/09 10:16:56;;;;;;;11.37;11.07;;;20.60;39.80;;;;;;5032940;28;20441;-65
2024/01/09 10:19:24;;;;;;;11.20;10.90;;;20.60;39.70;;;;;;5032786;28;20531;-63
2024/01/09 10:21:51;;;;;;;11.60;11.20;;;20.60;39.70;;;;;;5032628;28;20581;-64
2024/01/09 10:24:18;;;;;;;12.30;11.80;;;20.60;39.70;;;;;;5032814;28;20480;-65
2024/01/09 10:26:45;;;;;;;12.50;12.00;;;20.60;39.70;;;;;;5027351;28;20473;-69
2024/01/09 10:29:14;;;;;;;12.57;12.07;;;20.40;38.90;;;;;;5027239;28;20870;-70
2024/01/09 10:31:44;;;;;;;12.73;12.33;;;20.40;38.50;;;;;;5027504;28;20480;-70
2024/01/09 10:34:11;;;;;;;12.17;11.73;;;20.30;38.60;;;;;;5031790;28;20521;-69
2024/01/09 10:36:38;;;;;;;12.10;11.70;;;20.30;38.40;;;;;;5025943;28;20476;-69
2024/01/09 10:39:06;;;;;;;13.03;12.53;;;20.20;38.50;;;;;;5032740;28;20465;-67
2024/01/09 10:41:34;;;;;;;13.30;12.70;;;20.20;38.70;;;;;;5019242;28;20489;-67
2024/01/09 10:44:01;;;;;;;12.67;12.07;;;20.10;38.80;;;;;;5032900;28;20473;-67
2024/01/09 10:46:31;;;;;;;13.50;13.00;;;20.10;38.90;;;;;;5033263;28;20473;-66
2024/01/09 10:49:00;;;;;;;13.20;12.67;;;20.10;38.90;;;;;;5033097;28;20441;-66
2024/01/09 10:51:27;;;;;;;12.73;12.33;;;20.10;39.00;;;;;;5021115;28;20483;-67
2024/01/09 10:53:56;;;;;;;12.40;12.00;;;20.10;38.90;;;;;;5024801;28;20512;-68
2024/01/09 10:56:23;;;;;;;14.37;13.83;;;20.10;39.00;;;;;;5031880;28;20465;-67
2024/01/09 10:58:52;;;;;;;12.17;11.70;;;20.10;38.80;;;;;;5031794;28;20472;-66
2024/01/09 11:01:20;;;;;;;12.67;12.27;;;20.10;38.80;;;;;;5025307;28;20490;-68
2024/01/09 11:03:48;;;;;;;13.30;12.70;;;20.10;38.70;;;;;;5031811;28;20437;-67
2024/01/09 11:06:17;;;;;;;12.80;12.30;;;20.10;38.70;;;;;;5031658;28;20827;-67
2024/01/09 11:08:49;;;;;;;12.10;11.67;;;20.00;38.60;;;;;;5031609;28;20441;-67
2024/01/09 11:11:18;;;;;;;11.63;11.23;;;20.00;38.60;;;;;;5025313;28;20527;-66
2024/01/09 11:13:49;;;;;;;12.20;11.80;;;20.00;38.60;;;;;;5025251;28;20480;-66
2024/01/09 11:16:20;;;;;;;11.67;11.37;;;20.00;38.50;;;;;;5031511;28;20461;-66
2024/01/09 11:18:50;;;;;;;12.20;11.57;;;20.00;38.60;;;;;;5031643;28;20437;-66
2024/01/09 11:21:24;;;;;;;11.83;11.43;;;19.90;38.40;;;;;;5025789;28;20500;-66
2024/01/09 11:23:57;;;;;;;13.30;12.30;;;19.90;38.50;;;;;;5031548;28;20445;-67
2024/01/09 11:26:27;;;;;;;12.10;11.63;;;19.90;38.70;;;;;;5031500;28;20194;-65
2024/01/09 11:28:54;;;;;;;11.10;10.60;;;19.90;38.70;;;;;;5030838;28;20456;-69
2024/01/09 11:31:23;;;;;;;12.80;12.20;;;19.90;38.80;;;;;;5024738;28;20995;-65
2024/01/09 11:33:52;;;;;;;18.30;17.43;;;20.00;38.80;;;;;;5031579;28;20198;-68
2024/01/09 11:36:23;;;;;;;18.23;17.53;;;20.00;37.40;;;;;;5031298;28;20975;-65
2024/01/09 11:38:53;;;;;;;19.10;18.30;;;20.00;37.70;;;;;;5027127;28;20450;-70
2024/01/09 11:41:23;;;;;;;17.87;17.07;;;20.00;38.10;;;;;;5026667;28;20546;-65
2024/01/09 11:44:03;;;;;;;16.00;15.40;;;19.90;38.40;;;;;;5031411;28;20899;-66
2024/01/09 11:46:33;;;;;;;16.57;15.87;;;19.90;38.50;;;;;;5031351;28;20476;-67
2024/01/09 11:49:01;;;;;;;17.60;16.80;;;19.90;38.60;;;;;;5031959;28;20437;-68
2024/01/09 11:51:30;;;;;;;19.33;18.40;;;19.80;38.70;;;;;;5065471;22;20498;-67
2024/01/09 11:54:01;;;;;;;17.20;16.40;;;19.90;39.10;;;;;;5033734;28;20444;-69
2024/01/09 11:56:29;;;;;;;18.57;17.70;;;19.90;39.00;;;;;;5035143;28;20449;-69
2024/01/09 11:58:57;;;;;;;16.93;16.23;;;19.90;39.10;;;;;;5035235;28;20928;-68
2024/01/09 12:01:24;;;;;;;17.37;16.53;;;19.80;39.00;;;;;;5030012;28;21016;-69
2024/01/09 12:03:53;;;;;;;17.50;16.80;;;19.90;39.10;;;;;;5009077;28;20469;-69
2024/01/09 12:06:22;;;;;;;16.73;16.03;;;19.90;39.10;;;;;;5015213;28;20525;-70
2024/01/09 12:08:49;;;;;;;18.10;17.43;;;19.90;39.30;;;;;;5015445;28;20473;-69
2024/01/09 12:11:16;;;;;;;17.43;16.73;;;19.90;39.10;;;;;;5014412;28;20520;-69
2024/01/09 12:13:44;;;;;;;17.40;16.60;;;19.90;38.90;;;;;;5000293;28;20547;-71
2024/01/09 12:16:18;;;;;;;17.67;16.80;;;19.90;38.90;;;;;;5015068;28;20455;-70
2024/01/09 12:18:50;;;;;;;16.67;16.07;;;19.90;38.80;;;;;;4992032;28;20467;-68
2024/01/09 12:21:18;;;;;;;16.40;15.77;;;19.90;38.80;;;;;;5004138;28;20462;-65
2024/01/09 12:23:46;;;;;;;15.63;14.93;;;20.00;38.90;;;;;;5014949;28;20500;-66
2024/01/09 12:26:16;;;;;;;16.47;15.87;;;20.00;39.20;;;;;;5015111;28;20478;-65
2024/01/09 12:28:43;;;;;;;15.87;15.20;;;20.10;39.30;;;;;;4999548;28;20470;-66
2024/01/09 12:31:10;;;;;;;17.00;16.40;;;20.20;39.30;;;;;;5014439;28;20902;-65
2024/01/09 12:33:37;;;;;;;15.83;15.23;;;20.30;39.30;;;;;;5014552;28;20465;-66